CMA CGM Herodote — MFEP — position and weather

sailwx.info

Track history (hours):
 
Tides and Currents Weather Stations Pressure Air Temp Water Temp Dewpoint Dewpoint Depression Visibility Wind Speed Wind Dir Waves Ship Positions

CMA CGM Herodote

Last reported at 2017-Feb-26 17:33 UTC. Time now 2017-Feb-26 23:53 UTC.
Position N 35°16' E 034°57'.

Length 170 m; draft 7.2 m.

Type: Cargo ship. MMSI: 235051085.

Date/timePositionNaut miles runAvg speedWind from/ knotsBaromVisibWave heightAir tempDewpointWater temp
2017-Feb-26 17:33N 35°16' E 034°57'1211.5
2017-Feb-26 16:33N 35°05' E 034°59'1111.4
2017-Feb-26 15:33N 34°54' E 035°01'1111.0
2017-Feb-26 14:33N 34°43' E 035°03'1110.8
2017-Feb-26 13:33N 34°32' E 035°05'1111.3
2017-Feb-26 12:33N 34°21' E 035°07'1312.9
2017-Feb-26 11:33N 34°08' E 035°09'1313.1
2017-Feb-26 10:33N 33°55' E 035°10'1313.4
2017-Feb-26 09:33N 33°55' E 035°26'6 0.3
2017-Feb-25 15:22N 33°57' E 035°33'0 0.0
2017-Feb-25 11:22N 33°57' E 035°33'5 0.4
2017-Feb-24 22:18N 33°56' E 035°27'3318.1
2017-Feb-24 20:30N 33°46' E 034°49'1819.2
2017-Feb-24 19:33N 33°38' E 034°30'2419.4
2017-Feb-24 18:20N 33°27' E 034°05'1519.5
2017-Feb-24 17:33N 33°20' E 033°48'8311.4
2017-Feb-24 10:19N 32°44' E 032°20'  
2017-Feb-18 03:07N 36°12' E 014°49'813.1
2017-Feb-18 02:30N 36°15' E 014°40'1213.1
2017-Feb-18 01:33N 36°20' E 014°26'1313.3
2017-Feb-18 00:33N 36°24' E 014°10'1313.3
2017-Feb-17 23:33N 36°29' E 013°55'1413.6
2017-Feb-17 22:31N 36°35' E 013°38'1313.4
2017-Feb-17 21:33N 36°40' E 013°24'1313.2
2017-Feb-17 20:33N 36°44' E 013°08'1313.1
2017-Feb-17 19:33N 36°49' E 012°53'1413.3
2017-Feb-17 18:30N 36°54' E 012°36'  
Track history (hours):
 
Tides and Currents Weather Stations Pressure Air Temp Water Temp Dewpoint Dewpoint Depression Visibility Wind Speed Wind Dir Waves Ship Positions

CMA CGM Herodote

Last reported at 2017-Feb-26 17:33 UTC. Time now 2017-Feb-26 23:53 UTC.
Position N 35°16' E 034°57'.

Length 170 m; draft 7.2 m.

Type: Cargo ship. MMSI: 235051085.

Date/timePositionNaut miles runAvg speedWind from/ knotsBaromVisibWave heightAir tempDewpointWater temp
2017-Feb-26 17:33N 35°16' E 034°57'1211.5
2017-Feb-26 16:33N 35°05' E 034°59'1111.4
2017-Feb-26 15:33N 34°54' E 035°01'1111.0
2017-Feb-26 14:33N 34°43' E 035°03'1110.8
2017-Feb-26 13:33N 34°32' E 035°05'1111.3
2017-Feb-26 12:33N 34°21' E 035°07'1312.9
2017-Feb-26 11:33N 34°08' E 035°09'1313.1
2017-Feb-26 10:33N 33°55' E 035°10'1313.4
2017-Feb-26 09:33N 33°55' E 035°26'6 0.3
2017-Feb-25 15:22N 33°57' E 035°33'0 0.0
2017-Feb-25 11:22N 33°57' E 035°33'5 0.4
2017-Feb-24 22:18N 33°56' E 035°27'3318.1
2017-Feb-24 20:30N 33°46' E 034°49'1819.2
2017-Feb-24 19:33N 33°38' E 034°30'2419.4
2017-Feb-24 18:20N 33°27' E 034°05'1519.5
2017-Feb-24 17:33N 33°20' E 033°48'8311.4
2017-Feb-24 10:19N 32°44' E 032°20'  
2017-Feb-18 03:07N 36°12' E 014°49'813.1
2017-Feb-18 02:30N 36°15' E 014°40'1213.1
2017-Feb-18 01:33N 36°20' E 014°26'1313.3
2017-Feb-18 00:33N 36°24' E 014°10'1313.3
2017-Feb-17 23:33N 36°29' E 013°55'1413.6
2017-Feb-17 22:31N 36°35' E 013°38'1313.4
2017-Feb-17 21:33N 36°40' E 013°24'1313.2
2017-Feb-17 20:33N 36°44' E 013°08'1313.1
2017-Feb-17 19:33N 36°49' E 012°53'1413.3
2017-Feb-17 18:30N 36°54' E 012°36'  

Dump ship's entire track history